sensor_id;sensor_type;location;lat;lon;timestamp;pressure;altitude;pressure_sealevel;temperature;humidity
82555;BME280;72219;48.186;11.554;2024-03-25T00:00:19;94934.38;;;15.35;44.75
82555;BME280;72219;48.186;11.554;2024-03-25T00:02:46;94930.34;;;15.32;44.73
82555;BME280;72219;48.186;11.554;2024-03-25T00:05:12;94936.34;;;15.33;45.04
82555;BME280;72219;48.186;11.554;2024-03-25T00:07:41;94931.91;;;15.33;44.80
82555;BME280;72219;48.186;11.554;2024-03-25T00:10:07;94933.72;;;15.33;44.67
82555;BME280;72219;48.186;11.554;2024-03-25T00:12:35;94935.09;;;15.28;44.46
82555;BME280;72219;48.186;11.554;2024-03-25T00:15:00;94922.47;;;15.25;44.93
82555;BME280;72219;48.186;11.554;2024-03-25T00:17:26;94937.56;;;15.37;44.67
82555;BME280;72219;48.186;11.554;2024-03-25T00:19:52;94934.38;;;15.35;44.47
82555;BME280;72219;48.186;11.554;2024-03-25T00:22:19;94928.72;;;15.31;44.51
82555;BME280;72219;48.186;11.554;2024-03-25T00:24:48;94931.00;;;15.19;44.95
82555;BME280;72219;48.186;11.554;2024-03-25T00:27:14;94934.31;;;15.28;44.77
82555;BME280;72219;48.186;11.554;2024-03-25T00:29:40;94938.69;;;15.27;45.00
82555;BME280;72219;48.186;11.554;2024-03-25T00:32:06;94929.44;;;15.25;45.00
82555;BME280;72219;48.186;11.554;2024-03-25T00:34:32;94934.53;;;15.33;44.77
82555;BME280;72219;48.186;11.554;2024-03-25T00:36:58;94937.13;;;15.33;44.87
82555;BME280;72219;48.186;11.554;2024-03-25T00:39:24;94944.34;;;15.31;44.47
82555;BME280;72219;48.186;11.554;2024-03-25T00:41:51;94936.09;;;15.27;44.92
82555;BME280;72219;48.186;11.554;2024-03-25T00:44:16;94935.09;;;15.28;44.79
82555;BME280;72219;48.186;11.554;2024-03-25T00:46:42;94920.25;;;15.29;44.59
82555;BME280;72219;48.186;11.554;2024-03-25T00:49:08;94914.00;;;15.23;44.75
82555;BME280;72219;48.186;11.554;2024-03-25T00:51:34;94926.72;;;15.33;44.53
82555;BME280;72219;48.186;11.554;2024-03-25T00:53:59;94926.50;;;15.28;44.52
82555;BME280;72219;48.186;11.554;2024-03-25T00:56:24;94924.53;;;15.37;44.58
82555;BME280;72219;48.186;11.554;2024-03-25T00:58:50;94929.91;;;15.28;44.56
82555;BME280;72219;48.186;11.554;2024-03-25T01:01:15;94931.50;;;15.29;44.55
82555;BME280;72219;48.186;11.554;2024-03-25T01:03:41;94927.28;;;15.28;44.49
82555;BME280;72219;48.186;11.554;2024-03-25T01:06:06;94922.69;;;15.30;44.68
82555;BME280;72219;48.186;11.554;2024-03-25T01:08:32;94916.22;;;15.26;44.40
82555;BME280;72219;48.186;11.554;2024-03-25T01:10:57;94902.91;;;15.14;44.75
82555;BME280;72219;48.186;11.554;2024-03-25T01:13:22;94913.03;;;15.24;44.69
82555;BME280;72219;48.186;11.554;2024-03-25T01:15:49;94914.44;;;15.27;44.36
82555;BME280;72219;48.186;11.554;2024-03-25T01:18:15;94919.47;;;15.28;44.58
82555;BME280;72219;48.186;11.554;2024-03-25T01:20:40;94916.22;;;15.26;44.81
82555;BME280;72219;48.186;11.554;2024-03-25T01:23:05;94916.47;;;15.31;44.56
82555;BME280;72219;48.186;11.554;2024-03-25T01:25:31;94918.53;;;15.36;44.40
82555;BME280;72219;48.186;11.554;2024-03-25T01:27:56;94862.25;;;14.92;44.35
82555;BME280;72219;48.186;11.554;2024-03-25T01:30:22;94910.28;;;15.33;44.41
82555;BME280;72219;48.186;11.554;2024-03-25T01:32:47;94913.47;;;15.28;44.55
82555;BME280;72219;48.186;11.554;2024-03-25T01:35:14;94912.63;;;15.27;44.58
82555;BME280;72219;48.186;11.554;2024-03-25T01:37:41;94912.28;;;15.30;44.64
82555;BME280;72219;48.186;11.554;2024-03-25T01:40:07;94915.50;;;15.33;44.78
82555;BME280;72219;48.186;11.554;2024-03-25T01:42:32;94905.19;;;15.24;44.52
82555;BME280;72219;48.186;11.554;2024-03-25T01:44:58;94909.03;;;15.28;44.59
82555;BME280;72219;48.186;11.554;2024-03-25T01:47:25;94906.44;;;15.28;44.78
82555;BME280;72219;48.186;11.554;2024-03-25T01:49:51;94900.19;;;15.23;44.80
82555;BME280;72219;48.186;11.554;2024-03-25T01:52:19;94903.97;;;15.20;44.45
82555;BME280;72219;48.186;11.554;2024-03-25T01:54:47;94919.09;;;15.31;44.73
82555;BME280;72219;48.186;11.554;2024-03-25T01:57:14;94907.00;;;15.24;44.31
82555;BME280;72219;48.186;11.554;2024-03-25T01:59:40;94899.94;;;15.18;44.72
82555;BME280;72219;48.186;11.554;2024-03-25T02:02:06;94923.06;;;15.27;44.53
82555;BME280;72219;48.186;11.554;2024-03-25T02:04:32;94916.84;;;15.28;44.78
82555;BME280;72219;48.186;11.554;2024-03-25T02:06:57;94915.44;;;15.26;44.58
82555;BME280;72219;48.186;11.554;2024-03-25T02:09:25;94901.09;;;15.15;44.92
82555;BME280;72219;48.186;11.554;2024-03-25T02:11:52;94913.25;;;15.29;44.45
82555;BME280;72219;48.186;11.554;2024-03-25T02:14:18;94905.38;;;15.23;44.79
82555;BME280;72219;48.186;11.554;2024-03-25T02:16:44;94911.00;;;15.26;44.56
82555;BME280;72219;48.186;11.554;2024-03-25T02:19:12;94913.03;;;15.24;44.80
82555;BME280;72219;48.186;11.554;2024-03-25T02:21:38;94919.84;;;15.25;44.75
82555;BME280;72219;48.186;11.554;2024-03-25T02:24:05;94915.63;;;15.24;44.52
82555;BME280;72219;48.186;11.554;2024-03-25T02:26:32;94905.16;;;15.18;44.83
82555;BME280;72219;48.186;11.554;2024-03-25T02:28:57;94894.84;;;15.09;45.01
82555;BME280;72219;48.186;11.554;2024-03-25T02:31:23;94913.41;;;15.21;44.71
82555;BME280;72219;48.186;11.554;2024-03-25T02:33:49;94895.72;;;15.17;44.97
82555;BME280;72219;48.186;11.554;2024-03-25T02:36:15;94905.78;;;15.20;44.63
82555;BME280;72219;48.186;11.554;2024-03-25T02:38:41;94913.41;;;15.21;44.69
82555;BME280;72219;48.186;11.554;2024-03-25T02:41:06;94912.03;;;15.25;44.67
82555;BME280;72219;48.186;11.554;2024-03-25T02:43:32;94898.88;;;15.12;44.85
82555;BME280;72219;48.186;11.554;2024-03-25T02:45:58;94908.59;;;15.25;44.74
82555;BME280;72219;48.186;11.554;2024-03-25T02:48:23;94916.38;;;15.18;44.84
82555;BME280;72219;48.186;11.554;2024-03-25T02:50:49;94914.19;;;15.22;44.53
82555;BME280;72219;48.186;11.554;2024-03-25T02:53:14;94916.56;;;15.17;44.62
82555;BME280;72219;48.186;11.554;2024-03-25T02:55:39;94923.38;;;15.18;44.68
82555;BME280;72219;48.186;11.554;2024-03-25T02:58:06;94921.75;;;15.17;44.76
82555;BME280;72219;48.186;11.554;2024-03-25T03:00:31;94925.81;;;15.19;44.81
82555;BME280;72219;48.186;11.554;2024-03-25T03:02:57;94919.34;;;15.15;44.42
82555;BME280;72219;48.186;11.554;2024-03-25T03:05:22;94916.50;;;15.10;44.59
82555;BME280;72219;48.186;11.554;2024-03-25T03:07:48;94925.81;;;15.19;44.51
82555;BME280;72219;48.186;11.554;2024-03-25T03:10:13;94920.16;;;15.16;44.42
82555;BME280;72219;48.186;11.554;2024-03-25T03:12:38;94928.22;;;15.21;44.28
82555;BME280;72219;48.186;11.554;2024-03-25T03:15:04;94924.19;;;15.18;44.56
82555;BME280;72219;48.186;11.554;2024-03-25T03:17:30;94892.31;;;14.94;44.56
82555;BME280;72219;48.186;11.554;2024-03-25T03:19:55;94923.97;;;15.13;44.72
82555;BME280;72219;48.186;11.554;2024-03-25T03:22:20;94895.19;;;15.00;44.63
82555;BME280;72219;48.186;11.554;2024-03-25T03:24:46;94930.41;;;15.17;44.65
82555;BME280;72219;48.186;11.554;2024-03-25T03:27:11;94918.31;;;15.09;44.81
82555;BME280;72219;48.186;11.554;2024-03-25T03:29:37;94916.88;;;15.07;44.65
82555;BME280;72219;48.186;11.554;2024-03-25T03:32:02;94917.13;;;15.12;44.58
82555;BME280;72219;48.186;11.554;2024-03-25T03:34:28;94933.81;;;15.18;44.63
82555;BME280;72219;48.186;11.554;2024-03-25T03:36:53;94930.75;;;15.14;44.51
82555;BME280;72219;48.186;11.554;2024-03-25T03:39:18;94926.31;;;15.08;44.62
82555;BME280;72219;48.186;11.554;2024-03-25T03:41:44;94922.88;;;15.07;44.16
82555;BME280;72219;48.186;11.554;2024-03-25T03:44:09;94920.47;;;15.06;44.51
82555;BME280;72219;48.186;11.554;2024-03-25T03:46:35;94923.72;;;15.08;44.53
82555;BME280;72219;48.186;11.554;2024-03-25T03:49:00;94931.41;;;15.16;44.72
82555;BME280;72219;48.186;11.554;2024-03-25T03:51:26;94937.00;;;15.13;44.36
82555;BME280;72219;48.186;11.554;2024-03-25T03:53:51;94934.13;;;15.08;44.53
82555;BME280;72219;48.186;11.554;2024-03-25T03:56:17;94934.13;;;15.08;44.72
82555;BME280;72219;48.186;11.554;2024-03-25T03:58:42;94933.31;;;15.07;44.42
82555;BME280;72219;48.186;11.554;2024-03-25T04:01:18;94940.13;;;15.08;44.83
82555;BME280;72219;48.186;11.554;2024-03-25T04:03:44;94932.69;;;15.05;44.69
82555;BME280;72219;48.186;11.554;2024-03-25T04:06:11;94912.19;;;14.95;44.89
82555;BME280;72219;48.186;11.554;2024-03-25T04:08:40;94935.56;;;15.10;44.56
82555;BME280;72219;48.186;11.554;2024-03-25T04:11:06;94934.72;;;15.10;44.54
82555;BME280;72219;48.186;11.554;2024-03-25T04:13:33;94930.47;;;15.02;44.78
82555;BME280;72219;48.186;11.554;2024-03-25T04:16:03;94929.91;;;15.07;44.79
82555;BME280;72219;48.186;11.554;2024-03-25T04:18:32;94934.66;;;15.03;44.50
82555;BME280;72219;48.186;11.554;2024-03-25T04:20:58;94945.53;;;15.07;44.35
82555;BME280;72219;48.186;11.554;2024-03-25T04:23:24;94939.53;;;15.06;44.66
82555;BME280;72219;48.186;11.554;2024-03-25T04:25:50;94941.31;;;15.06;44.69
82555;BME280;72219;48.186;11.554;2024-03-25T04:28:15;94934.06;;;15.01;44.73
82555;BME280;72219;48.186;11.554;2024-03-25T04:30:41;94944.75;;;15.06;44.92
82555;BME280;72219;48.186;11.554;2024-03-25T04:33:07;94949.75;;;15.08;44.36
82555;BME280;72219;48.186;11.554;2024-03-25T04:35:32;94949.75;;;15.08;44.49
82555;BME280;72219;48.186;11.554;2024-03-25T04:37:57;94944.63;;;14.93;44.78
82555;BME280;72219;48.186;11.554;2024-03-25T04:40:24;94955.69;;;15.02;44.70
82555;BME280;72219;48.186;11.554;2024-03-25T04:42:49;94949.25;;;14.97;44.77
82555;BME280;72219;48.186;11.554;2024-03-25T04:45:15;94956.34;;;15.04;44.73
82555;BME280;72219;48.186;11.554;2024-03-25T04:47:40;94957.50;;;15.01;44.61
82555;BME280;72219;48.186;11.554;2024-03-25T04:50:06;94969.56;;;15.02;44.43
82555;BME280;72219;48.186;11.554;2024-03-25T04:52:33;94953.22;;;14.93;44.56
82555;BME280;72219;48.186;11.554;2024-03-25T04:54:59;94965.75;;;15.05;44.36
82555;BME280;72219;48.186;11.554;2024-03-25T04:57:24;94960.91;;;15.02;44.63
82555;BME280;72219;48.186;11.554;2024-03-25T04:59:50;94961.09;;;15.00;44.69
82555;BME280;72219;48.186;11.554;2024-03-25T05:02:15;94949.81;;;14.93;44.55
82555;BME280;72219;48.186;11.554;2024-03-25T05:04:41;94964.09;;;14.97;44.57
82555;BME280;72219;48.186;11.554;2024-03-25T05:07:07;94959.97;;;14.88;44.60
82555;BME280;72219;48.186;11.554;2024-03-25T05:09:33;94970.88;;;14.98;44.26
82555;BME280;72219;48.186;11.554;2024-03-25T05:11:58;94978.34;;;15.01;44.74
82555;BME280;72219;48.186;11.554;2024-03-25T05:14:24;94972.81;;;14.89;44.48
82555;BME280;72219;48.186;11.554;2024-03-25T05:16:50;94985.28;;;14.94;44.63
82555;BME280;72219;48.186;11.554;2024-03-25T05:19:17;94982.06;;;14.92;45.01
82555;BME280;72219;48.186;11.554;2024-03-25T05:21:42;94933.63;;;14.61;44.58
82555;BME280;72219;48.186;11.554;2024-03-25T05:24:08;94980.69;;;14.96;44.81
82555;BME280;72219;48.186;11.554;2024-03-25T05:26:33;94968.25;;;14.91;44.53
82555;BME280;72219;48.186;11.554;2024-03-25T05:28:58;94982.50;;;14.95;44.43
82555;BME280;72219;48.186;11.554;2024-03-25T05:31:24;94979.16;;;15.02;44.66
82555;BME280;72219;48.186;11.554;2024-03-25T05:33:52;94982.13;;;14.99;44.41
82555;BME280;72219;48.186;11.554;2024-03-25T05:36:19;94987.16;;;15.00;44.63
82555;BME280;72219;48.186;11.554;2024-03-25T05:38:45;94987.94;;;15.01;44.39
82555;BME280;72219;48.186;11.554;2024-03-25T05:41:11;94982.06;;;14.92;44.53
82555;BME280;72219;48.186;11.554;2024-03-25T05:43:37;94995.34;;;14.97;44.42
82555;BME280;72219;48.186;11.554;2024-03-25T05:46:03;95000.97;;;15.01;44.27
82555;BME280;72219;48.186;11.554;2024-03-25T05:48:28;94995.69;;;14.94;44.30
82555;BME280;72219;48.186;11.554;2024-03-25T05:51:03;94972.75;;;14.83;44.34
82555;BME280;72219;48.186;11.554;2024-03-25T05:53:33;95002.22;;;15.05;44.20
82555;BME280;72219;48.186;11.554;2024-03-25T05:55:58;95001.34;;;14.97;44.30
82555;BME280;72219;48.186;11.554;2024-03-25T05:58:27;94984.84;;;14.90;44.36
82555;BME280;72219;48.186;11.554;2024-03-25T06:00:53;94982.31;;;14.97;44.05
82555;BME280;72219;48.186;11.554;2024-03-25T06:03:19;95007.94;;;15.15;44.01
82555;BME280;72219;48.186;11.554;2024-03-25T06:05:45;94984.88;;;15.12;44.05
82555;BME280;72219;48.186;11.554;2024-03-25T06:08:11;95003.38;;;15.17;44.11
82555;BME280;72219;48.186;11.554;2024-03-25T06:11:01;95006.41;;;15.21;43.88
82555;BME280;72219;48.186;11.554;2024-03-25T06:13:27;95002.63;;;15.23;43.73
82555;BME280;72219;48.186;11.554;2024-03-25T06:15:52;95005.41;;;15.22;43.12
82555;BME280;72219;48.186;11.554;2024-03-25T06:18:18;94998.38;;;15.22;43.85
82555;BME280;72219;48.186;11.554;2024-03-25T06:20:44;95014.91;;;15.29;43.86
82555;BME280;72219;48.186;11.554;2024-03-25T06:23:09;95013.28;;;15.28;43.70
82555;BME280;72219;48.186;11.554;2024-03-25T06:25:34;95000.19;;;15.22;43.57
82555;BME280;72219;48.186;11.554;2024-03-25T06:28:02;95016.34;;;15.32;43.78
82555;BME280;72219;48.186;11.554;2024-03-25T06:30:42;95011.31;;;15.30;43.45
82555;BME280;72219;48.186;11.554;2024-03-25T06:33:26;94994.19;;;15.21;43.22
82555;BME280;72219;48.186;11.554;2024-03-25T06:36:10;95001.63;;;15.24;43.61
82555;BME280;72219;48.186;11.554;2024-03-25T06:38:35;95021.63;;;15.39;43.73
82555;BME280;72219;48.186;11.554;2024-03-25T06:41:00;95020.00;;;15.38;43.25
82555;BME280;72219;48.186;11.554;2024-03-25T06:43:26;95006.13;;;15.30;43.64
82555;BME280;72219;48.186;11.554;2024-03-25T06:45:51;95010.31;;;15.31;43.33
82555;BME280;72219;48.186;11.554;2024-03-25T06:48:17;95020.59;;;15.40;43.29
82555;BME280;72219;48.186;11.554;2024-03-25T06:50:52;95018.25;;;15.45;43.03
82555;BME280;72219;48.186;11.554;2024-03-25T06:53:17;95017.13;;;15.54;42.78
82555;BME280;72219;48.186;11.554;2024-03-25T06:55:53;95025.41;;;15.58;42.79
82555;BME280;72219;48.186;11.554;2024-03-25T06:58:20;95017.59;;;15.58;43.05
82555;BME280;72219;48.186;11.554;2024-03-25T07:00:46;94975.19;;;15.27;42.85
82555;BME280;72219;48.186;11.554;2024-03-25T07:03:11;95030.03;;;15.62;42.72
82555;BME280;72219;48.186;11.554;2024-03-25T07:05:37;95023.06;;;16.13;42.36
82555;BME280;72219;48.186;11.554;2024-03-25T07:08:02;95026.06;;;16.93;40.84
82555;BME280;72219;48.186;11.554;2024-03-25T07:10:28;95022.44;;;17.96;38.83
82555;BME280;72219;48.186;11.554;2024-03-25T07:12:53;95020.13;;;18.54;38.05
82555;BME280;72219;48.186;11.554;2024-03-25T07:15:18;94992.66;;;18.70;37.27
82555;BME280;72219;48.186;11.554;2024-03-25T07:17:47;95010.69;;;19.37;36.65
82555;BME280;72219;48.186;11.554;2024-03-25T07:20:13;94998.81;;;19.91;35.57
82555;BME280;72219;48.186;11.554;2024-03-25T07:22:38;94991.91;;;20.41;34.78
82555;BME280;72219;48.186;11.554;2024-03-25T07:25:04;94998.06;;;21.02;33.48
82555;BME280;72219;48.186;11.554;2024-03-25T07:27:29;94987.78;;;21.43;33.28
82555;BME280;72219;48.186;11.554;2024-03-25T07:29:55;94983.50;;;21.60;33.05
82555;BME280;72219;48.186;11.554;2024-03-25T07:32:20;95004.47;;;21.67;33.04
82555;BME280;72219;48.186;11.554;2024-03-25T07:34:46;94974.53;;;21.49;33.58
82555;BME280;72219;48.186;11.554;2024-03-25T07:37:11;95017.34;;;21.99;32.89
82555;BME280;72219;48.186;11.554;2024-03-25T07:39:37;95015.16;;;22.20;33.01
82555;BME280;72219;48.186;11.554;2024-03-25T07:42:02;95020.91;;;22.28;33.13
82555;BME280;72219;48.186;11.554;2024-03-25T07:44:27;95009.22;;;22.36;33.01
82555;BME280;72219;48.186;11.554;2024-03-25T07:46:53;95017.59;;;22.45;32.88
82555;BME280;72219;48.186;11.554;2024-03-25T07:49:19;95023.66;;;22.45;32.82
82555;BME280;72219;48.186;11.554;2024-03-25T07:51:45;95020.22;;;22.45;33.21
82555;BME280;72219;48.186;11.554;2024-03-25T07:54:10;95006.47;;;22.43;33.50
82555;BME280;72219;48.186;11.554;2024-03-25T07:56:37;95028.09;;;22.68;33.44
82555;BME280;72219;48.186;11.554;2024-03-25T07:59:03;95018.34;;;22.81;33.45
82555;BME280;72219;48.186;11.554;2024-03-25T08:01:29;95020.94;;;22.93;33.21
82555;BME280;72219;48.186;11.554;2024-03-25T08:06:19;95009.66;;;23.09;33.07
82555;BME280;72219;48.186;11.554;2024-03-25T08:08:46;95007.56;;;23.11;33.19
82555;BME280;72219;48.186;11.554;2024-03-25T08:11:12;95010.19;;;23.11;32.81
82555;BME280;72219;48.186;11.554;2024-03-25T08:13:37;95012.63;;;23.01;32.37
82555;BME280;72219;48.186;11.554;2024-03-25T08:16:03;95009.59;;;22.92;33.96
82555;BME280;72219;48.186;11.554;2024-03-25T08:18:29;95013.91;;;22.98;33.68
82555;BME280;72219;48.186;11.554;2024-03-25T08:20:54;95007.72;;;23.05;34.05
82555;BME280;72219;48.186;11.554;2024-03-25T08:23:19;95003.22;;;23.05;32.72
82555;BME280;72219;48.186;11.554;2024-03-25T08:25:45;94988.69;;;23.02;33.49
82555;BME280;72219;48.186;11.554;2024-03-25T08:28:10;95013.06;;;23.22;33.39
82555;BME280;72219;48.186;11.554;2024-03-25T08:30:36;95015.97;;;23.37;33.55
82555;BME280;72219;48.186;11.554;2024-03-25T08:33:01;95014.94;;;23.55;33.17
82555;BME280;72219;48.186;11.554;2024-03-25T08:35:27;95015.75;;;23.39;32.01
82555;BME280;72219;48.186;11.554;2024-03-25T08:37:52;95000.31;;;23.64;32.76
82555;BME280;72219;48.186;11.554;2024-03-25T08:40:18;95010.56;;;23.44;32.69
82555;BME280;72219;48.186;11.554;2024-03-25T08:42:43;95011.00;;;23.12;33.07
82555;BME280;72219;48.186;11.554;2024-03-25T08:45:09;95011.09;;;22.88;33.18
82555;BME280;72219;48.186;11.554;2024-03-25T08:47:35;95007.44;;;22.77;33.37
82555;BME280;72219;48.186;11.554;2024-03-25T08:50:00;94999.56;;;22.65;33.17
82555;BME280;72219;48.186;11.554;2024-03-25T08:52:26;94986.75;;;22.57;33.86
82555;BME280;72219;48.186;11.554;2024-03-25T08:54:51;94997.53;;;22.56;33.88
82555;BME280;72219;48.186;11.554;2024-03-25T08:57:16;95009.81;;;22.50;33.75
82555;BME280;72219;48.186;11.554;2024-03-25T08:59:42;94993.75;;;22.40;33.93
82555;BME280;72219;48.186;11.554;2024-03-25T09:02:07;94995.47;;;22.34;34.19
82555;BME280;72219;48.186;11.554;2024-03-25T09:04:33;94986.09;;;22.38;33.86
82555;BME280;72219;48.186;11.554;2024-03-25T09:06:59;94966.38;;;22.17;34.20
82555;BME280;72219;48.186;11.554;2024-03-25T09:09:24;94998.91;;;22.34;34.31
82555;BME280;72219;48.186;11.554;2024-03-25T09:12:09;94985.41;;;22.19;34.56
82555;BME280;72219;48.186;11.554;2024-03-25T09:14:34;94973.81;;;22.08;34.73
82555;BME280;72219;48.186;11.554;2024-03-25T09:16:59;94974.16;;;22.12;34.78
82555;BME280;72219;48.186;11.554;2024-03-25T09:19:26;94990.31;;;22.15;34.56
82555;BME280;72219;48.186;11.554;2024-03-25T09:22:02;94985.50;;;22.12;34.65
82555;BME280;72219;48.186;11.554;2024-03-25T09:24:28;94975.31;;;22.04;34.69
82555;BME280;72219;48.186;11.554;2024-03-25T09:26:53;94988.03;;;22.07;34.92
82555;BME280;72219;48.186;11.554;2024-03-25T09:29:19;94980.47;;;21.99;34.69
82555;BME280;72219;48.186;11.554;2024-03-25T09:31:44;94979.22;;;22.01;34.56
82555;BME280;72219;48.186;11.554;2024-03-25T09:34:10;94974.50;;;22.04;34.54
82555;BME280;72219;48.186;11.554;2024-03-25T09:36:35;94954.72;;;21.89;34.44
82555;BME280;72219;48.186;11.554;2024-03-25T09:39:00;94962.50;;;21.84;35.05
82555;BME280;72219;48.186;11.554;2024-03-25T09:41:28;94958.34;;;21.76;35.02
82555;BME280;72219;48.186;11.554;2024-03-25T09:43:55;94974.38;;;21.98;34.94
82555;BME280;72219;48.186;11.554;2024-03-25T09:46:22;94970.84;;;22.16;34.66
82555;BME280;72219;48.186;11.554;2024-03-25T09:48:48;94964.72;;;22.63;34.04
82555;BME280;72219;48.186;11.554;2024-03-25T09:51:14;94941.03;;;22.80;33.12
82555;BME280;72219;48.186;11.554;2024-03-25T09:53:40;94953.31;;;23.15;32.98
82555;BME280;72219;48.186;11.554;2024-03-25T09:56:06;94958.72;;;23.38;32.71
82555;BME280;72219;48.186;11.554;2024-03-25T09:58:33;94962.91;;;23.67;32.32
82555;BME280;72219;48.186;11.554;2024-03-25T10:00:58;94947.13;;;23.56;32.08
82555;BME280;72219;48.186;11.554;2024-03-25T10:03:23;94950.25;;;23.52;32.35
82555;BME280;72219;48.186;11.554;2024-03-25T10:05:52;94952.56;;;23.49;32.42
82555;BME280;72219;48.186;11.554;2024-03-25T10:08:21;94950.13;;;23.30;32.77
82555;BME280;72219;48.186;11.554;2024-03-25T10:10:47;94931.91;;;23.29;32.78
82555;BME280;72219;48.186;11.554;2024-03-25T10:13:13;94933.81;;;23.16;32.92
82555;BME280;72219;48.186;11.554;2024-03-25T10:15:39;94917.44;;;23.02;33.04
82555;BME280;72219;48.186;11.554;2024-03-25T10:18:05;94924.41;;;23.09;33.09
82555;BME280;72219;48.186;11.554;2024-03-25T10:20:30;94918.88;;;23.10;33.10
82555;BME280;72219;48.186;11.554;2024-03-25T10:22:55;94919.59;;;23.06;33.23
82555;BME280;72219;48.186;11.554;2024-03-25T10:25:27;94917.75;;;22.89;33.52
82555;BME280;72219;48.186;11.554;2024-03-25T10:27:59;94921.91;;;23.02;33.29
82555;BME280;72219;48.186;11.554;2024-03-25T10:30:28;94906.72;;;22.92;33.59
82555;BME280;72219;48.186;11.554;2024-03-25T10:33:06;94911.03;;;22.70;33.79
82555;BME280;72219;48.186;11.554;2024-03-25T10:35:33;94919.84;;;22.75;34.10
82555;BME280;72219;48.186;11.554;2024-03-25T10:38:06;94916.13;;;22.88;33.68
82555;BME280;72219;48.186;11.554;2024-03-25T10:40:34;94912.91;;;22.86;33.78
82555;BME280;72219;48.186;11.554;2024-03-25T10:43:01;94910.63;;;22.90;33.54
82555;BME280;72219;48.186;11.554;2024-03-25T10:45:31;94898.56;;;22.94;33.70
82555;BME280;72219;48.186;11.554;2024-03-25T10:50:26;94896.94;;;23.22;33.23
82555;BME280;72219;48.186;11.554;2024-03-25T10:52:53;94869.50;;;23.23;33.12
82555;BME280;72219;48.186;11.554;2024-03-25T10:55:20;94889.56;;;23.24;32.89
82555;BME280;72219;48.186;11.554;2024-03-25T10:57:48;94871.44;;;22.98;33.44
82555;BME280;72219;48.186;11.554;2024-03-25T11:00:14;94870.66;;;22.81;33.63
82555;BME280;72219;48.186;11.554;2024-03-25T11:02:44;94874.25;;;22.92;33.63
82555;BME280;72219;48.186;11.554;2024-03-25T11:05:13;94864.56;;;22.51;33.54
82555;BME280;72219;48.186;11.554;2024-03-25T11:07:40;94864.59;;;22.40;33.79
82555;BME280;72219;48.186;11.554;2024-03-25T11:10:08;94836.22;;;22.18;34.02
82555;BME280;72219;48.186;11.554;2024-03-25T11:12:56;94846.91;;;22.52;34.22
82555;BME280;72219;48.186;11.554;2024-03-25T11:15:22;94858.00;;;22.83;33.80
82555;BME280;72219;48.186;11.554;2024-03-25T11:17:50;94852.28;;;23.03;33.60
82555;BME280;72219;48.186;11.554;2024-03-25T11:20:17;94848.06;;;23.36;32.81
82555;BME280;72219;48.186;11.554;2024-03-25T11:22:51;94855.91;;;23.48;32.70
82555;BME280;72219;48.186;11.554;2024-03-25T11:25:17;94846.38;;;23.47;32.54
82555;BME280;72219;48.186;11.554;2024-03-25T11:27:44;94841.50;;;23.56;32.65
82555;BME280;72219;48.186;11.554;2024-03-25T11:30:11;94820.97;;;23.41;32.29
82555;BME280;72219;48.186;11.554;2024-03-25T11:32:52;94820.78;;;23.47;32.02
82555;BME280;72219;48.186;11.554;2024-03-25T11:35:18;94814.69;;;23.47;32.33
82555;BME280;72219;48.186;11.554;2024-03-25T11:37:44;94820.31;;;23.90;32.52
82555;BME280;72219;48.186;11.554;2024-03-25T11:40:11;94808.03;;;24.00;32.10
82555;BME280;72219;48.186;11.554;2024-03-25T11:42:42;94801.28;;;24.10;32.09
82555;BME280;72219;48.186;11.554;2024-03-25T11:45:16;94806.50;;;24.27;31.66
82555;BME280;72219;48.186;11.554;2024-03-25T11:47:42;94801.50;;;24.30;31.84
82555;BME280;72219;48.186;11.554;2024-03-25T11:50:09;94801.19;;;24.27;31.29
82555;BME280;72219;48.186;11.554;2024-03-25T11:52:34;94792.47;;;24.26;31.63
82555;BME280;72219;48.186;11.554;2024-03-25T11:55:00;94799.09;;;24.29;31.90
82555;BME280;72219;48.186;11.554;2024-03-25T11:57:25;94799.09;;;24.29;32.10
82555;BME280;72219;48.186;11.554;2024-03-25T11:59:51;94790.72;;;24.37;31.60
82555;BME280;72219;48.186;11.554;2024-03-25T12:02:16;94782.06;;;24.42;31.57
82555;BME280;72219;48.186;11.554;2024-03-25T12:04:45;94780.00;;;24.22;31.80
82555;BME280;72219;48.186;11.554;2024-03-25T12:07:13;94787.00;;;24.11;32.06
82555;BME280;72219;48.186;11.554;2024-03-25T12:09:38;94765.91;;;23.72;31.84
82555;BME280;72219;48.186;11.554;2024-03-25T12:12:22;94771.72;;;23.91;32.41
82555;BME280;72219;48.186;11.554;2024-03-25T12:14:49;94751.06;;;23.88;32.41
82555;BME280;72219;48.186;11.554;2024-03-25T12:17:15;94751.75;;;24.00;32.56
82555;BME280;72219;48.186;11.554;2024-03-25T12:19:40;94753.13;;;24.08;32.18
82555;BME280;72219;48.186;11.554;2024-03-25T12:22:06;94750.47;;;24.02;32.11
82555;BME280;72219;48.186;11.554;2024-03-25T12:24:33;94747.13;;;23.90;32.29
82555;BME280;72219;48.186;11.554;2024-03-25T12:26:59;94744.81;;;23.94;32.69
82555;BME280;72219;48.186;11.554;2024-03-25T12:29:24;94740.03;;;23.74;32.67
82555;BME280;72219;48.186;11.554;2024-03-25T12:31:56;94731.75;;;23.43;33.46
82555;BME280;72219;48.186;11.554;2024-03-25T12:34:22;94739.19;;;23.46;33.48
82555;BME280;72219;48.186;11.554;2024-03-25T12:36:48;94740.78;;;23.69;33.10
82555;BME280;72219;48.186;11.554;2024-03-25T12:39:17;94721.03;;;23.72;32.73
82555;BME280;72219;48.186;11.554;2024-03-25T12:41:44;94725.81;;;23.75;32.86
82555;BME280;72219;48.186;11.554;2024-03-25T12:44:12;94711.56;;;23.76;32.91
82555;BME280;72219;48.186;11.554;2024-03-25T12:46:38;94718.91;;;23.74;32.83
82555;BME280;72219;48.186;11.554;2024-03-25T12:49:05;94716.53;;;23.72;32.99
82555;BME280;72219;48.186;11.554;2024-03-25T12:51:31;94709.81;;;23.64;32.87